createdAt,value
2023-02-27T00:00:40.566Z,1.73
2023-02-27T00:03:10.625Z,2.22
2023-02-27T00:05:41.948Z,2.17
2023-02-27T00:08:09.916Z,1.80
2023-02-27T00:10:37.819Z,2.40
2023-02-27T00:13:05.803Z,1.92
2023-02-27T00:15:34.641Z,2.60
2023-02-27T00:18:02.435Z,2.20
2023-02-27T00:20:30.580Z,2.78
2023-02-27T00:22:59.570Z,1.80
2023-02-27T00:25:27.203Z,4.22
2023-02-27T00:27:56.928Z,3.13
2023-02-27T00:30:26.506Z,2.45
2023-02-27T00:32:54.523Z,4.07
2023-02-27T00:35:23.118Z,3.73
2023-02-27T00:37:50.893Z,3.08
2023-02-27T00:40:20.815Z,2.78
2023-02-27T00:42:49.675Z,2.00
2023-02-27T00:45:19.746Z,6.93
2023-02-27T00:47:48.102Z,2.63
2023-02-27T00:50:16.132Z,3.08
2023-02-27T00:52:44.024Z,3.00
2023-02-27T00:55:12.642Z,3.17
2023-02-27T00:57:42.461Z,2.65
2023-02-27T01:00:12.493Z,2.53
2023-02-27T01:02:40.392Z,2.53
2023-02-27T01:05:10.256Z,2.28
2023-02-27T01:07:38.430Z,2.75
2023-02-27T01:10:06.929Z,5.55
2023-02-27T01:12:34.758Z,3.67
2023-02-27T01:15:03.968Z,2.10
2023-02-27T01:17:31.953Z,2.67
2023-02-27T01:20:00.274Z,2.42
2023-02-27T01:22:28.072Z,2.97
2023-02-27T01:24:55.946Z,1.87
2023-02-27T01:27:23.736Z,1.58
2023-02-27T01:29:51.822Z,3.70
2023-02-27T01:32:21.181Z,3.97
2023-02-27T01:34:49.172Z,3.15
2023-02-27T01:37:17.730Z,2.47
2023-02-27T01:39:45.637Z,2.97
2023-02-27T01:42:21.232Z,2.28
2023-02-27T01:45:27.011Z,2.20
2023-02-27T01:48:02.301Z,1.90
2023-02-27T01:50:30.184Z,2.47
2023-02-27T01:53:01.656Z,4.05
2023-02-27T01:55:31.912Z,1.65
2023-02-27T01:57:59.979Z,2.85
2023-02-27T02:00:28.511Z,2.47
2023-02-27T02:03:05.936Z,2.37
2023-02-27T02:05:35.127Z,3.55
2023-02-27T02:08:04.461Z,2.13
2023-02-27T02:10:33.472Z,1.58
2023-02-27T02:13:01.982Z,2.72
2023-02-27T02:15:40.569Z,3.53
2023-02-27T02:18:20.782Z,2.45
2023-02-27T02:21:17.906Z,1.60
2023-02-27T02:24:15.466Z,3.13
2023-02-27T02:26:54.591Z,3.55
2023-02-27T02:29:57.484Z,5.70
2023-02-27T02:33:05.574Z,4.00
2023-02-27T02:36:12.406Z,3.78
2023-02-27T02:38:59.289Z,2.25
2023-02-27T02:41:35.391Z,1.75
2023-02-27T02:44:13.551Z,5.53
2023-02-27T02:46:52.383Z,2.20
2023-02-27T02:49:28.431Z,1.80
2023-02-27T02:52:03.870Z,2.05
2023-02-27T02:54:41.890Z,2.47
2023-02-27T02:57:13.619Z,2.30
2023-02-27T02:59:49.139Z,4.32
2023-02-27T03:02:21.371Z,3.28
2023-02-27T03:04:54.764Z,1.95
2023-02-27T03:07:27.811Z,1.88
2023-02-27T03:10:03.734Z,2.40
2023-02-27T03:12:34.241Z,2.30
2023-02-27T03:15:07.318Z,3.72
2023-02-27T03:17:42.151Z,3.92
2023-02-27T03:20:16.214Z,2.25
2023-02-27T03:22:49.121Z,3.47
2023-02-27T03:25:19.170Z,1.50
2023-02-27T03:27:54.028Z,2.67
2023-02-27T03:30:29.512Z,3.05
2023-02-27T03:33:44.123Z,3.60
2023-02-27T03:37:10.788Z,3.53
2023-02-27T03:40:44.102Z,2.58
2023-02-27T03:43:57.726Z,2.53
2023-02-27T03:47:01.214Z,3.58
2023-02-27T03:50:28.810Z,3.10
2023-02-27T04:02:31.674Z,2.85
2023-02-27T04:09:03.030Z,2.57
2023-02-27T04:22:32.708Z,2.47
2023-02-27T04:31:59.135Z,1.83
2023-02-27T04:34:35.987Z,1.85
2023-02-27T04:37:14.917Z,2.97
2023-02-27T04:43:00.500Z,6.35
2023-02-27T04:45:31.261Z,3.38
2023-02-27T04:48:07.430Z,2.40
2023-02-27T04:50:39.628Z,9.90
2023-02-27T04:53:20.168Z,11.20
2023-02-27T04:55:53.813Z,11.88
2023-02-27T04:58:27.649Z,6.72
2023-02-27T05:01:01.207Z,5.30
2023-02-27T05:03:35.309Z,5.97
2023-02-27T05:06:04.624Z,5.07
2023-02-27T05:08:38.132Z,6.32
2023-02-27T05:11:13.880Z,4.40
2023-02-27T05:13:47.175Z,3.90
2023-02-27T05:16:21.365Z,6.38
2023-02-27T05:18:49.774Z,3.20
2023-02-27T05:21:27.094Z,5.93
2023-02-27T05:24:05.311Z,4.07
2023-02-27T05:26:51.202Z,4.65
2023-02-27T05:29:29.385Z,7.40
2023-02-27T05:32:06.945Z,14.53
2023-02-27T05:34:39.091Z,16.70
2023-02-27T05:37:12.100Z,15.13
2023-02-27T05:39:42.032Z,8.23
2023-02-27T05:42:14.923Z,7.65
2023-02-27T05:44:46.483Z,5.93
2023-02-27T05:47:20.260Z,5.95
2023-02-27T05:49:53.087Z,16.83
2023-02-27T05:52:25.054Z,13.45
2023-02-27T05:54:58.433Z,12.82
2023-02-27T05:57:31.037Z,12.30
2023-02-27T06:00:04.140Z,13.00
2023-02-27T06:02:33.158Z,10.65
2023-02-27T06:05:01.593Z,8.63
2023-02-27T06:07:32.306Z,6.95
2023-02-27T06:10:00.311Z,7.97
2023-02-27T06:12:29.757Z,5.35
2023-02-27T06:14:57.422Z,4.93
2023-02-27T06:17:25.090Z,6.43
2023-02-27T06:19:53.107Z,7.10
2023-02-27T06:22:21.193Z,9.00
2023-02-27T06:24:51.417Z,4.65
2023-02-27T06:27:19.281Z,4.82
2023-02-27T06:29:51.018Z,6.53
2023-02-27T06:32:18.715Z,10.57
2023-02-27T06:34:47.434Z,7.17
2023-02-27T06:37:15.480Z,4.72
2023-02-27T06:39:43.367Z,7.88
2023-02-27T06:42:11.250Z,10.52
2023-02-27T06:44:39.202Z,6.55
2023-02-27T06:47:08.590Z,7.43
2023-02-27T06:49:36.481Z,4.30
2023-02-27T06:52:04.599Z,3.15
2023-02-27T06:54:32.348Z,4.70
2023-02-27T06:57:00.128Z,5.25
2023-02-27T06:59:28.745Z,5.30
2023-02-27T07:01:56.624Z,4.82
2023-02-27T07:04:26.213Z,4.40
2023-02-27T07:07:35.795Z,5.00
2023-02-27T07:09:42.207Z,6.07
2023-02-27T07:12:10.578Z,5.27
2023-02-27T07:14:38.665Z,4.88
2023-02-27T07:17:06.678Z,5.93
2023-02-27T07:19:37.233Z,5.18
2023-02-27T07:22:05.243Z,6.30
2023-02-27T07:24:33.518Z,6.13
2023-02-27T07:27:01.827Z,5.45
2023-02-27T07:29:29.943Z,5.55
2023-02-27T07:31:58.152Z,6.95
2023-02-27T07:34:26.732Z,3.90
2023-02-27T07:36:56.012Z,4.93
2023-02-27T07:39:25.541Z,9.27
2023-02-27T07:41:53.245Z,3.38
2023-02-27T07:44:21.485Z,3.60
2023-02-27T07:46:49.885Z,9.18
2023-02-27T07:49:18.088Z,7.90
2023-02-27T07:51:46.072Z,6.95
2023-02-27T07:54:15.126Z,3.70
2023-02-27T07:56:43.947Z,7.43
2023-02-27T07:59:12.605Z,4.68
2023-02-27T08:01:40.897Z,4.10
2023-02-27T08:04:09.287Z,3.03
2023-02-27T08:06:37.320Z,4.32
2023-02-27T08:09:06.358Z,3.60
2023-02-27T08:11:35.637Z,4.78
2023-02-27T08:14:03.772Z,3.70
2023-02-27T08:16:32.481Z,4.25
2023-02-27T08:19:01.159Z,5.32
2023-02-27T08:21:31.199Z,3.50
2023-02-27T08:23:59.192Z,5.65
2023-02-27T08:26:27.560Z,4.30
2023-02-27T08:28:57.227Z,4.22
2023-02-27T08:31:25.202Z,6.13
2023-02-27T08:34:00.983Z,4.60
2023-02-27T08:36:32.345Z,5.03
2023-02-27T08:39:00.529Z,6.27
2023-02-27T08:41:28.446Z,2.75
2023-02-27T08:43:57.938Z,3.70
2023-02-27T08:46:26.675Z,2.38
2023-02-27T08:48:54.970Z,4.13
2023-02-27T08:51:23.094Z,4.60
2023-02-27T08:53:51.001Z,4.85
2023-02-27T08:56:19.117Z,2.42
2023-02-27T08:58:47.234Z,2.75
2023-02-27T09:01:16.528Z,3.38
2023-02-27T09:03:44.517Z,3.00
2023-02-27T09:06:13.458Z,4.07
2023-02-27T09:08:41.613Z,3.80
2023-02-27T09:11:09.569Z,3.88
2023-02-27T09:13:37.525Z,6.78
2023-02-27T09:16:06.030Z,3.53
2023-02-27T09:18:35.070Z,2.58
2023-02-27T09:21:03.417Z,3.28
2023-02-27T09:23:31.642Z,4.35
2023-02-27T09:25:59.597Z,2.85
2023-02-27T09:28:27.574Z,3.57
2023-02-27T09:30:55.736Z,2.60
2023-02-27T09:33:24.775Z,2.17
2023-02-27T09:35:53.983Z,3.20
2023-02-27T09:38:22.284Z,4.43
2023-02-27T09:40:52.611Z,2.80
2023-02-27T09:43:24.288Z,4.07
2023-02-27T09:45:55.287Z,3.10
2023-02-27T09:48:30.872Z,2.88
2023-02-27T09:51:01.224Z,2.72
2023-02-27T09:53:33.604Z,4.03
2023-02-27T09:56:09.346Z,2.78
2023-02-27T09:58:45.718Z,2.50
2023-02-27T10:01:17.834Z,2.65
2023-02-27T10:04:12.470Z,3.80
2023-02-27T10:06:45.697Z,2.20
2023-02-27T10:09:26.654Z,2.38
2023-02-27T10:12:07.716Z,3.88
2023-02-27T10:14:43.263Z,1.95
2023-02-27T10:17:17.616Z,1.15
2023-02-27T10:19:48.457Z,3.17
2023-02-27T10:22:23.155Z,4.03
2023-02-27T10:24:53.577Z,2.17
2023-02-27T10:27:23.094Z,4.70
2023-02-27T10:29:52.823Z,6.20
2023-02-27T10:32:24.051Z,2.90
2023-02-27T10:34:56.004Z,12.13
2023-02-27T10:37:27.695Z,8.00
2023-02-27T10:39:58.803Z,4.97
2023-02-27T10:42:31.484Z,2.38
2023-02-27T10:44:59.768Z,4.47
2023-02-27T10:47:28.231Z,2.03
2023-02-27T10:49:56.529Z,2.83
2023-02-27T10:52:25.721Z,2.88
2023-02-27T10:54:54.631Z,2.97
2023-02-27T10:57:30.663Z,2.20
2023-02-27T11:00:01.044Z,5.00
2023-02-27T11:02:37.381Z,2.50
2023-02-27T11:05:08.979Z,4.38
2023-02-27T11:07:40.211Z,7.68
2023-02-27T11:10:19.133Z,3.70
2023-02-27T11:13:00.865Z,5.10
2023-02-27T11:15:30.468Z,1.95
2023-02-27T11:18:26.083Z,4.00
2023-02-27T11:20:54.727Z,3.25
2023-02-27T11:23:25.895Z,6.60
2023-02-27T11:26:12.131Z,4.43
2023-02-27T11:28:40.019Z,2.92
2023-02-27T11:31:18.069Z,9.57
2023-02-27T11:33:51.841Z,7.20
2023-02-27T11:36:20.179Z,5.50
2023-02-27T11:38:54.372Z,3.55
2023-02-27T11:41:23.346Z,3.75
2023-02-27T11:43:53.441Z,4.97
2023-02-27T11:46:46.067Z,8.50
2023-02-27T11:49:24.117Z,4.70
2023-02-27T11:52:00.728Z,3.72
2023-02-27T11:54:38.038Z,3.10
2023-02-27T11:57:14.421Z,1.45
2023-02-27T11:59:45.720Z,2.60
2023-02-27T12:02:21.975Z,3.03
2023-02-27T12:04:53.319Z,3.17
2023-02-27T12:07:26.449Z,2.42
2023-02-27T12:10:02.415Z,1.40
2023-02-27T12:12:38.127Z,3.20
2023-02-27T12:15:16.013Z,6.07
2023-02-27T12:17:47.660Z,1.77
2023-02-27T12:20:29.502Z,2.60
2023-02-27T12:22:57.432Z,4.85
2023-02-27T12:25:39.483Z,4.63
2023-02-27T12:28:22.475Z,1.37
2023-02-27T12:31:01.131Z,2.88
2023-02-27T12:33:38.507Z,1.98
2023-02-27T12:36:12.388Z,1.90
2023-02-27T12:38:41.199Z,3.83
2023-02-27T12:41:28.366Z,2.30
2023-02-27T12:44:12.572Z,3.03
2023-02-27T12:46:49.298Z,1.65
2023-02-27T12:49:34.855Z,1.90
2023-02-27T12:52:14.327Z,1.67
2023-02-27T12:54:53.376Z,2.67
2023-02-27T12:57:54.714Z,3.13
2023-02-27T13:00:29.684Z,3.00
2023-02-27T13:03:06.192Z,2.90
2023-02-27T13:05:43.008Z,2.25
2023-02-27T13:08:22.775Z,2.17
2023-02-27T13:10:56.446Z,1.33
2023-02-27T13:13:29.818Z,1.00
2023-02-27T13:16:04.787Z,3.42
2023-02-27T13:18:40.735Z,1.80
2023-02-27T13:21:14.515Z,1.43
2023-02-27T13:23:54.554Z,4.47
2023-02-27T13:26:26.274Z,2.60
2023-02-27T13:28:54.947Z,2.13
2023-02-27T13:31:32.054Z,4.05
2023-02-27T13:34:09.321Z,11.70
2023-02-27T13:36:40.852Z,2.30
2023-02-27T13:39:40.152Z,3.42
2023-02-27T13:42:43.391Z,7.13
2023-02-27T13:45:44.742Z,6.63
2023-02-27T13:48:54.026Z,1.83
2023-02-27T13:51:56.887Z,2.35
2023-02-27T13:54:44.355Z,9.40
2023-02-27T13:57:24.361Z,8.85
2023-02-27T14:00:01.773Z,2.72
2023-02-27T14:02:58.257Z,2.43
2023-02-27T14:05:32.513Z,5.68
2023-02-27T14:08:06.786Z,2.85
2023-02-27T14:10:37.181Z,6.18
2023-02-27T14:13:05.979Z,4.75
2023-02-27T14:16:00.468Z,5.07
2023-02-27T14:18:57.357Z,2.40
2023-02-27T14:21:55.893Z,7.40
2023-02-27T14:24:33.811Z,8.90
2023-02-27T14:27:04.296Z,2.67
2023-02-27T14:29:35.351Z,3.93
2023-02-27T14:32:06.919Z,6.97
2023-02-27T14:34:37.336Z,2.67
2023-02-27T14:37:11.432Z,2.67
2023-02-27T14:39:39.943Z,4.63
2023-02-27T14:42:26.984Z,6.50
2023-02-27T14:44:55.384Z,7.18
2023-02-27T14:47:28.839Z,11.73
2023-02-27T14:49:57.217Z,7.82
2023-02-27T14:52:30.026Z,10.43
2023-02-27T14:55:13.391Z,4.00
2023-02-27T14:57:41.594Z,4.85
2023-02-27T15:00:32.375Z,4.35
2023-02-27T15:03:01.036Z,2.50
2023-02-27T15:05:34.438Z,4.55
2023-02-27T15:08:04.967Z,4.73
2023-02-27T15:10:33.598Z,5.55
2023-02-27T15:13:03.643Z,2.70
2023-02-27T15:15:32.860Z,3.17
2023-02-27T15:18:01.362Z,3.50
2023-02-27T15:20:31.336Z,3.77
2023-02-27T15:22:59.611Z,3.05
2023-02-27T15:25:32.287Z,6.80
2023-02-27T15:28:04.463Z,3.42
2023-02-27T15:30:32.953Z,8.30
2023-02-27T15:33:02.803Z,6.63
2023-02-27T15:35:36.255Z,2.10
2023-02-27T15:38:05.343Z,6.35
2023-02-27T15:40:36.428Z,7.72
2023-02-27T15:43:04.466Z,2.55
2023-02-27T15:45:34.449Z,3.27
2023-02-27T15:48:03.085Z,5.40
2023-02-27T15:50:34.825Z,8.45
2023-02-27T15:53:06.366Z,6.38
2023-02-27T15:55:38.380Z,3.03
2023-02-27T15:58:21.026Z,9.53
2023-02-27T16:00:49.153Z,8.35
2023-02-27T16:03:23.289Z,11.82
2023-02-27T16:05:53.447Z,15.98
2023-02-27T16:08:22.194Z,16.80
2023-02-27T16:10:53.020Z,8.63
2023-02-27T16:13:22.684Z,9.63
2023-02-27T16:16:01.188Z,15.30
2023-02-27T16:18:34.858Z,10.38
2023-02-27T16:21:14.584Z,15.07
2023-02-27T16:23:43.190Z,8.10
2023-02-27T16:26:24.004Z,9.90
2023-02-27T16:28:53.864Z,23.30
2023-02-27T16:31:28.946Z,12.45
2023-02-27T16:33:59.343Z,13.02
2023-02-27T16:36:31.966Z,7.83
2023-02-27T16:39:00.002Z,8.30
2023-02-27T16:41:29.630Z,9.73
2023-02-27T16:43:57.603Z,11.05
2023-02-27T16:46:25.405Z,13.05
2023-02-27T16:48:55.542Z,7.47
2023-02-27T16:51:26.431Z,5.25
2023-02-27T16:53:56.109Z,3.60
2023-02-27T16:56:37.822Z,2.80
2023-02-27T16:59:08.834Z,2.45
2023-02-27T17:01:36.655Z,2.50
2023-02-27T17:04:10.889Z,3.83
2023-02-27T17:06:47.890Z,1.27
2023-02-27T17:09:15.611Z,2.60
2023-02-27T17:11:43.349Z,3.88
2023-02-27T17:14:13.281Z,3.30
2023-02-27T17:16:41.362Z,3.28
2023-02-27T17:19:09.633Z,2.40
2023-02-27T17:21:38.539Z,5.25
2023-02-27T17:24:07.120Z,2.42
2023-02-27T17:26:35.925Z,2.53
2023-02-27T17:29:05.278Z,2.03
2023-02-27T17:31:34.824Z,3.25
2023-02-27T17:34:05.139Z,3.22
2023-02-27T17:36:33.512Z,11.15
2023-02-27T17:39:02.061Z,4.53
2023-02-27T17:41:30.833Z,3.95
2023-02-27T17:44:01.774Z,4.78
2023-02-27T17:46:32.143Z,3.47
2023-02-27T17:49:02.051Z,2.40
2023-02-27T17:51:31.554Z,5.33
2023-02-27T17:54:02.812Z,4.88
2023-02-27T17:56:31.091Z,3.20
2023-02-27T17:58:59.913Z,1.58
2023-02-27T18:01:29.250Z,2.17
2023-02-27T18:03:57.359Z,3.00
2023-02-27T18:06:27.636Z,2.17
2023-02-27T18:08:56.265Z,2.35
2023-02-27T18:11:25.744Z,3.10
2023-02-27T18:13:53.990Z,2.22
2023-02-27T18:16:22.999Z,5.57
2023-02-27T18:18:50.929Z,5.22
2023-02-27T18:21:21.495Z,4.88
2023-02-27T18:23:51.938Z,3.88
2023-02-27T18:26:29.464Z,6.07
2023-02-27T18:29:00.382Z,2.93
2023-02-27T18:31:30.866Z,2.70
2023-02-27T18:33:58.577Z,6.22
2023-02-27T18:36:26.923Z,3.45
2023-02-27T18:38:56.605Z,6.85
2023-02-27T18:41:24.349Z,3.10
2023-02-27T18:43:52.147Z,4.03
2023-02-27T18:46:20.499Z,4.40
2023-02-27T18:48:48.709Z,4.10
2023-02-27T18:51:17.516Z,3.67
2023-02-27T18:53:48.245Z,3.47
2023-02-27T18:56:19.212Z,3.65
2023-02-27T18:58:48.017Z,3.83
2023-02-27T19:01:24.677Z,4.53
2023-02-27T19:03:53.321Z,5.05
2023-02-27T19:06:21.099Z,4.10
2023-02-27T19:08:49.225Z,3.55
2023-02-27T19:11:24.368Z,11.93
2023-02-27T19:13:52.455Z,4.50
2023-02-27T19:16:20.541Z,3.75
2023-02-27T19:18:48.926Z,6.30
2023-02-27T19:21:17.084Z,4.82
2023-02-27T19:23:44.739Z,3.78
2023-02-27T19:26:12.434Z,3.88
2023-02-27T19:28:41.643Z,6.13
2023-02-27T19:31:10.940Z,5.00
2023-02-27T19:33:39.224Z,4.35
2023-02-27T19:36:08.155Z,5.05
2023-02-27T19:38:38.962Z,4.15
2023-02-27T19:41:08.938Z,7.60
2023-02-27T19:43:37.187Z,5.97
2023-02-27T19:46:08.208Z,8.65
2023-02-27T19:48:36.440Z,6.63
2023-02-27T19:51:04.936Z,4.20
2023-02-27T19:53:33.921Z,4.18
2023-02-27T19:56:02.574Z,6.10
2023-02-27T19:58:31.295Z,4.50
2023-02-27T20:00:58.974Z,4.85
2023-02-27T20:03:29.322Z,5.72
2023-02-27T20:05:57.737Z,5.40
2023-02-27T20:08:25.838Z,5.77
2023-02-27T20:10:57.422Z,6.03
2023-02-27T20:13:25.350Z,7.13
2023-02-27T20:15:58.256Z,5.13
2023-02-27T20:18:27.774Z,3.78
2023-02-27T20:21:05.737Z,3.57
2023-02-27T20:23:35.797Z,4.45
2023-02-27T20:26:14.509Z,6.78
2023-02-27T20:28:42.836Z,3.25
2023-02-27T20:31:12.618Z,3.65
2023-02-27T20:33:41.696Z,5.57
2023-02-27T20:36:13.164Z,4.38
2023-02-27T20:38:41.971Z,5.97
2023-02-27T20:41:12.821Z,2.90
2023-02-27T20:43:42.911Z,6.40
2023-02-27T20:46:13.966Z,15.87
2023-02-27T20:48:42.123Z,10.15
2023-02-27T20:51:13.652Z,10.60
2023-02-27T20:53:43.221Z,20.73
2023-02-27T20:56:13.322Z,16.00
2023-02-27T20:58:41.591Z,11.73
2023-02-27T21:01:11.144Z,12.20
2023-02-27T21:03:40.199Z,17.58
2023-02-27T21:06:09.625Z,12.30
2023-02-27T21:08:40.054Z,5.68
2023-02-27T21:11:09.725Z,5.63
2023-02-27T21:13:38.253Z,7.97
2023-02-27T21:16:07.865Z,5.00
2023-02-27T21:18:38.778Z,5.40
2023-02-27T21:21:09.342Z,3.83
2023-02-27T21:23:41.421Z,4.53
2023-02-27T21:26:11.910Z,6.85
2023-02-27T21:28:46.995Z,7.63
2023-02-27T21:31:15.911Z,10.05
2023-02-27T21:33:44.472Z,12.68
2023-02-27T21:36:12.906Z,11.57
2023-02-27T21:38:42.587Z,11.10
2023-02-27T21:41:12.107Z,16.80
2023-02-27T21:43:41.209Z,13.52
2023-02-27T21:46:11.017Z,12.88
2023-02-27T21:48:39.573Z,12.70
2023-02-27T21:51:07.957Z,19.23
2023-02-27T21:53:37.977Z,16.02
2023-02-27T21:56:10.312Z,13.95
2023-02-27T21:58:39.276Z,11.18
2023-02-27T22:01:15.706Z,6.10
2023-02-27T22:03:44.997Z,5.53
2023-02-27T22:06:13.733Z,4.68
2023-02-27T22:08:42.441Z,4.95
2023-02-27T22:11:13.291Z,3.97
2023-02-27T22:13:41.071Z,5.97
2023-02-27T22:16:11.899Z,5.25
2023-02-27T22:18:41.399Z,3.85
2023-02-27T22:21:11.241Z,3.75
2023-02-27T22:23:40.194Z,4.38
2023-02-27T22:26:10.355Z,4.03
2023-02-27T22:28:41.384Z,5.95
2023-02-27T22:31:12.187Z,6.68
2023-02-27T22:33:41.759Z,4.63
2023-02-27T22:36:11.624Z,5.25
2023-02-27T22:38:39.564Z,5.43
2023-02-27T22:41:09.034Z,8.02
2023-02-27T22:43:38.484Z,9.32
2023-02-27T22:46:08.421Z,7.22
2023-02-27T22:48:36.991Z,8.48
2023-02-27T22:51:07.509Z,4.93
2023-02-27T22:53:38.417Z,4.28
2023-02-27T22:56:08.521Z,3.35
2023-02-27T22:58:38.956Z,4.88
2023-02-27T23:01:12.879Z,3.25
2023-02-27T23:03:42.222Z,4.90
2023-02-27T23:06:12.154Z,4.88
2023-02-27T23:08:40.983Z,5.28
2023-02-27T23:11:09.656Z,5.60
2023-02-27T23:13:38.277Z,5.00
2023-02-27T23:16:11.730Z,2.67
2023-02-27T23:18:42.332Z,2.92
2023-02-27T23:21:12.387Z,3.63
2023-02-27T23:23:40.675Z,6.13
2023-02-27T23:26:09.180Z,4.05
2023-02-27T23:28:38.720Z,4.33
2023-02-27T23:31:08.100Z,5.78
2023-02-27T23:33:36.812Z,5.35
2023-02-27T23:36:07.171Z,3.33
2023-02-27T23:38:35.233Z,3.90
2023-02-27T23:41:06.953Z,2.87
2023-02-27T23:43:35.463Z,4.03
2023-02-27T23:46:07.316Z,5.65
2023-02-27T23:48:35.936Z,6.45
2023-02-27T23:51:07.720Z,4.03
2023-02-27T23:53:36.873Z,3.27
2023-02-27T23:56:13.618Z,4.43
2023-02-27T23:58:41.784Z,2.97
